createdAt,value
2023-02-14T00:00:12.798Z,22.10
2023-02-14T00:02:39.367Z,24.98
2023-02-14T00:05:06.063Z,32.50
2023-02-14T00:07:32.415Z,32.26
2023-02-14T00:09:58.834Z,30.44
2023-02-14T00:12:25.300Z,34.72
2023-02-14T00:14:51.708Z,39.36
2023-02-14T00:17:18.207Z,37.07
2023-02-14T00:19:44.679Z,32.30
2023-02-14T00:22:11.144Z,31.68
2023-02-14T00:24:37.550Z,32.50
2023-02-14T00:27:03.963Z,31.77
2023-02-14T00:29:30.319Z,33.86
2023-02-14T00:31:56.895Z,37.30
2023-02-14T00:34:23.310Z,38.45
2023-02-14T00:36:49.717Z,30.79
2023-02-14T00:39:16.133Z,29.69
2023-02-14T00:41:42.559Z,32.04
2023-02-14T00:44:08.901Z,32.58
2023-02-14T00:46:35.341Z,33.03
2023-02-14T00:49:01.725Z,31.29
2023-02-14T00:51:28.088Z,25.97
2023-02-14T00:53:54.653Z,22.71
2023-02-14T00:56:21.031Z,23.97
2023-02-14T00:58:47.619Z,25.86
2023-02-14T01:01:17.113Z,29.54
2023-02-14T01:03:43.625Z,31.46
2023-02-14T01:06:10.056Z,31.61
2023-02-14T01:08:36.442Z,28.85
2023-02-14T01:11:02.872Z,25.93
2023-02-14T01:13:29.231Z,24.03
2023-02-14T01:15:55.638Z,23.98
2023-02-14T01:18:22.020Z,24.10
2023-02-14T01:20:48.566Z,24.18
2023-02-14T01:23:14.956Z,22.41
2023-02-14T01:25:41.430Z,21.62
2023-02-14T01:28:08.032Z,21.15
2023-02-14T01:30:34.440Z,20.80
2023-02-14T01:33:00.882Z,24.38
2023-02-14T01:35:27.323Z,26.85
2023-02-14T01:37:53.748Z,28.06
2023-02-14T01:40:20.158Z,27.27
2023-02-14T01:42:46.704Z,27.02
2023-02-14T01:45:13.145Z,27.50
2023-02-14T01:47:39.589Z,24.36
2023-02-14T01:50:06.031Z,26.40
2023-02-14T01:52:32.420Z,26.29
2023-02-14T01:54:58.781Z,29.75
2023-02-14T01:57:25.237Z,28.53
2023-02-14T01:59:51.611Z,22.04
2023-02-14T02:02:18.091Z,19.13
2023-02-14T02:04:44.566Z,18.21
2023-02-14T02:07:11.034Z,19.43
2023-02-14T02:09:37.501Z,17.31
2023-02-14T02:12:03.932Z,16.97
2023-02-14T02:14:30.452Z,20.82
2023-02-14T02:16:56.951Z,24.01
2023-02-14T02:19:23.420Z,24.17
2023-02-14T02:21:49.785Z,23.55
2023-02-14T02:24:16.190Z,24.98
2023-02-14T02:26:42.551Z,26.71
2023-02-14T02:29:08.954Z,24.02
2023-02-14T02:31:35.443Z,21.75
2023-02-14T02:34:01.950Z,21.03
2023-02-14T02:36:28.458Z,22.34
2023-02-14T02:38:54.881Z,22.24
2023-02-14T02:41:21.367Z,24.24
2023-02-14T02:43:47.752Z,26.69
2023-02-14T02:46:14.178Z,29.75
2023-02-14T02:48:40.592Z,31.76
2023-02-14T02:51:07.662Z,28.96
2023-02-14T02:53:34.117Z,32.64
2023-02-14T02:56:00.570Z,30.34
2023-02-14T02:58:27.020Z,26.46
2023-02-14T03:00:53.534Z,27.80
2023-02-14T03:03:19.953Z,29.02
2023-02-14T03:05:46.354Z,30.60
2023-02-14T03:08:12.835Z,34.50
2023-02-14T03:10:39.350Z,34.46
2023-02-14T03:13:06.829Z,32.98
2023-02-14T03:15:33.278Z,31.85
2023-02-14T03:17:59.730Z,26.39
2023-02-14T03:20:26.123Z,21.13
2023-02-14T03:22:52.462Z,21.98
2023-02-14T03:25:18.982Z,21.52
2023-02-14T03:27:45.404Z,23.48
2023-02-14T03:30:11.916Z,25.12
2023-02-14T03:32:38.468Z,28.03
2023-02-14T03:35:04.969Z,29.50
2023-02-14T03:37:31.385Z,30.51
2023-02-14T03:39:57.836Z,29.57
2023-02-14T03:42:24.189Z,27.46
2023-02-14T03:44:50.676Z,24.64
2023-02-14T03:47:17.136Z,23.48
2023-02-14T03:49:43.537Z,26.42
2023-02-14T03:52:10.237Z,29.54
2023-02-14T03:54:36.697Z,31.36
2023-02-14T03:57:03.227Z,32.56
2023-02-14T03:59:29.661Z,31.49
2023-02-14T04:01:56.149Z,30.60
2023-02-14T04:04:22.639Z,29.96
2023-02-14T04:06:49.073Z,28.22
2023-02-14T04:09:15.517Z,26.14
2023-02-14T04:11:42.034Z,25.55
2023-02-14T04:14:08.475Z,28.01
2023-02-14T04:16:34.865Z,31.56
2023-02-14T04:19:01.239Z,32.83
2023-02-14T04:21:27.677Z,27.00
2023-02-14T04:23:54.230Z,21.83
2023-02-14T04:26:22.673Z,22.49
2023-02-14T04:28:49.025Z,25.56
2023-02-14T04:31:15.479Z,26.73
2023-02-14T04:33:41.893Z,28.11
2023-02-14T04:36:08.301Z,32.49
2023-02-14T04:38:34.689Z,30.40
2023-02-14T04:41:03.247Z,28.54
2023-02-14T04:43:29.709Z,24.13
2023-02-14T04:45:56.155Z,20.44
2023-02-14T04:48:22.551Z,19.18
2023-02-14T04:50:49.006Z,19.47
2023-02-14T04:53:15.472Z,20.25
2023-02-14T04:55:41.950Z,17.52
2023-02-14T04:58:08.361Z,21.24
2023-02-14T05:00:34.832Z,20.61
2023-02-14T05:03:01.230Z,18.79
2023-02-14T05:05:27.603Z,19.26
2023-02-14T05:07:54.008Z,21.55
2023-02-14T05:10:20.406Z,24.22
2023-02-14T05:12:47.014Z,28.05
2023-02-14T05:15:13.617Z,27.41
2023-02-14T05:17:40.042Z,27.03
2023-02-14T05:20:06.445Z,25.81
2023-02-14T05:22:32.913Z,21.92
2023-02-14T05:24:59.339Z,22.11
2023-02-14T05:27:25.757Z,26.16
2023-02-14T05:29:52.141Z,24.89
2023-02-14T05:32:18.547Z,23.95
2023-02-14T05:34:44.950Z,22.97
2023-02-14T05:37:11.339Z,23.74
2023-02-14T05:39:37.799Z,26.02
2023-02-14T05:42:05.462Z,27.18
2023-02-14T05:44:31.835Z,27.10
2023-02-14T05:46:58.213Z,27.58
2023-02-14T05:49:24.683Z,28.55
2023-02-14T05:51:51.115Z,28.58
2023-02-14T05:54:17.501Z,26.54
2023-02-14T05:56:43.876Z,22.67
2023-02-14T05:59:10.376Z,21.85
2023-02-14T06:01:36.785Z,22.82
2023-02-14T06:04:03.306Z,23.00
2023-02-14T06:06:29.746Z,27.59
2023-02-14T06:08:56.223Z,26.44
2023-02-14T06:11:22.656Z,27.30
2023-02-14T06:13:51.074Z,28.02
2023-02-14T06:16:17.498Z,31.46
2023-02-14T06:18:43.944Z,30.90
2023-02-14T06:21:10.331Z,30.19
2023-02-14T06:23:36.688Z,27.56
2023-02-14T06:26:03.117Z,25.04
2023-02-14T06:28:29.545Z,26.65
2023-02-14T06:30:55.996Z,26.82
2023-02-14T06:33:22.494Z,26.67
2023-02-14T06:35:48.972Z,22.26
2023-02-14T06:38:15.368Z,20.71
2023-02-14T06:40:41.888Z,21.90
2023-02-14T06:43:09.282Z,24.92
2023-02-14T06:45:35.729Z,27.33
2023-02-14T06:48:06.701Z,29.63
2023-02-14T06:50:35.328Z,31.87
2023-02-14T06:53:02.030Z,32.07
2023-02-14T06:55:28.497Z,30.93
2023-02-14T06:57:55.008Z,30.82
2023-02-14T07:00:21.458Z,30.19
2023-02-14T07:02:49.183Z,31.21
2023-02-14T07:05:15.622Z,31.03
2023-02-14T07:07:42.112Z,31.80
2023-02-14T07:10:08.522Z,31.00
2023-02-14T07:12:34.961Z,32.15
2023-02-14T07:15:01.495Z,32.01
2023-02-14T07:17:27.935Z,31.54
2023-02-14T07:19:54.412Z,29.53
2023-02-14T07:22:20.873Z,27.25
2023-02-14T07:24:47.297Z,27.69
2023-02-14T07:27:23.887Z,28.05
2023-02-14T07:29:50.328Z,26.74
2023-02-14T07:32:17.831Z,25.97
2023-02-14T07:34:44.330Z,26.52
2023-02-14T07:37:10.715Z,29.31
2023-02-14T07:39:37.308Z,34.09
2023-02-14T07:42:03.761Z,35.20
2023-02-14T07:44:30.399Z,30.58
2023-02-14T07:46:56.925Z,29.38
2023-02-14T07:49:23.377Z,29.74
2023-02-14T07:51:49.813Z,27.36
2023-02-14T07:54:16.285Z,27.53
2023-02-14T07:56:42.917Z,29.89
2023-02-14T07:59:09.302Z,34.59
2023-02-14T08:01:42.940Z,29.46
2023-02-14T08:04:09.362Z,29.04
2023-02-14T08:06:35.823Z,30.87
2023-02-14T08:09:05.275Z,30.38
2023-02-14T08:11:33.500Z,30.35
2023-02-14T08:14:00.101Z,31.00
2023-02-14T08:16:26.717Z,30.56
2023-02-14T08:18:53.263Z,29.03
2023-02-14T08:21:19.793Z,29.56
2023-02-14T08:23:47.620Z,29.35
2023-02-14T08:26:14.149Z,34.69
2023-02-14T08:28:40.597Z,35.87
2023-02-14T08:31:07.109Z,32.93
2023-02-14T08:33:33.671Z,31.55
2023-02-14T08:36:00.193Z,31.19
2023-02-14T08:38:26.742Z,30.51
2023-02-14T08:40:57.119Z,52.52
2023-02-14T08:43:23.684Z,53.53
2023-02-14T08:45:52.281Z,35.08
2023-02-14T08:48:18.864Z,32.74
2023-02-14T08:50:45.370Z,31.81
2023-02-14T08:53:11.850Z,32.74
2023-02-14T08:55:38.338Z,28.67
2023-02-14T08:58:04.825Z,26.09
2023-02-14T09:00:31.651Z,29.57
2023-02-14T09:02:58.197Z,32.12
2023-02-14T09:05:24.717Z,33.24
2023-02-14T09:07:51.527Z,32.06
2023-02-14T09:10:18.168Z,30.79
2023-02-14T09:12:44.725Z,29.93
2023-02-14T09:15:11.391Z,30.58
2023-02-14T09:17:37.926Z,29.73
2023-02-14T09:20:04.416Z,29.75
2023-02-14T09:22:30.959Z,29.67
2023-02-14T09:24:57.484Z,28.27
2023-02-14T09:27:23.987Z,29.28
2023-02-14T09:29:50.491Z,29.51
2023-02-14T09:32:17.034Z,31.22
2023-02-14T09:34:45.786Z,36.71
2023-02-14T09:37:12.308Z,38.83
2023-02-14T09:39:38.830Z,39.25
2023-02-14T09:42:05.377Z,41.64
2023-02-14T09:44:31.879Z,43.14
2023-02-14T09:46:58.336Z,44.00
2023-02-14T09:49:24.967Z,47.67
2023-02-14T09:51:51.636Z,49.22
2023-02-14T09:54:18.178Z,49.97
2023-02-14T09:56:51.210Z,51.52
2023-02-14T09:59:18.332Z,49.83
2023-02-14T10:01:44.972Z,48.25
2023-02-14T10:04:11.527Z,46.64
2023-02-14T10:06:38.049Z,46.21
2023-02-14T10:09:05.437Z,48.11
2023-02-14T10:11:31.850Z,47.76
2023-02-14T10:13:58.401Z,47.60
2023-02-14T10:16:26.872Z,44.18
2023-02-14T10:18:53.862Z,45.26
2023-02-14T10:21:21.335Z,46.02
2023-02-14T10:23:47.990Z,46.34
2023-02-14T10:26:14.452Z,45.76
2023-02-14T10:28:41.037Z,45.89
2023-02-14T10:31:13.786Z,46.38
2023-02-14T10:33:40.260Z,46.26
2023-02-14T10:36:06.800Z,46.82
2023-02-14T10:38:33.272Z,46.86
2023-02-14T10:40:59.982Z,47.21
2023-02-14T10:43:26.665Z,48.55
2023-02-14T10:45:53.145Z,49.01
2023-02-14T10:48:19.808Z,48.96
2023-02-14T10:50:46.465Z,48.94
2023-02-14T10:53:12.998Z,48.37
2023-02-14T10:55:41.551Z,50.22
2023-02-14T10:58:08.204Z,48.97
2023-02-14T11:00:34.773Z,50.02
2023-02-14T11:03:01.328Z,50.69
2023-02-14T11:05:27.884Z,49.79
2023-02-14T11:07:54.395Z,50.83
2023-02-14T11:10:20.947Z,50.83
2023-02-14T11:12:47.909Z,53.89
2023-02-14T11:15:14.382Z,53.64
2023-02-14T11:17:40.970Z,55.48
2023-02-14T11:22:47.824Z,58.40
2023-02-14T11:25:14.339Z,57.40
2023-02-14T11:27:40.833Z,58.35
2023-02-14T11:30:07.354Z,58.14
2023-02-14T11:32:33.800Z,57.94
2023-02-14T11:35:00.289Z,57.14
2023-02-14T11:37:26.828Z,56.85
2023-02-14T11:39:53.322Z,57.78
2023-02-14T11:42:19.764Z,56.72
2023-02-14T11:44:46.367Z,58.34
2023-02-14T11:47:12.899Z,58.22
2023-02-14T11:49:39.548Z,57.78
2023-02-14T11:52:06.054Z,58.70
2023-02-14T11:54:32.561Z,58.17
2023-02-14T11:56:58.983Z,58.69
2023-02-14T11:59:26.527Z,57.89
2023-02-14T12:01:53.102Z,57.86
2023-02-14T12:04:19.669Z,58.35
2023-02-14T12:06:46.150Z,57.74
2023-02-14T12:09:12.797Z,59.03
2023-02-14T12:14:29.892Z,58.45
2023-02-14T12:16:56.381Z,59.53
2023-02-14T12:19:22.849Z,59.00
2023-02-14T12:21:49.290Z,58.54
2023-02-14T12:24:15.906Z,59.37
2023-02-14T12:26:42.538Z,58.76
2023-02-14T12:29:09.048Z,58.23
2023-02-14T12:31:35.570Z,58.46
2023-02-14T12:34:02.101Z,58.50
2023-02-14T12:36:28.569Z,58.29
2023-02-14T12:38:55.089Z,58.82
2023-02-14T12:41:22.955Z,58.84
2023-02-14T12:43:49.482Z,60.08
2023-02-14T12:46:15.952Z,60.34
2023-02-14T12:48:42.412Z,60.66
2023-02-14T12:51:08.803Z,60.40
2023-02-14T12:53:35.217Z,59.51
2023-02-14T12:56:01.755Z,60.86
2023-02-14T12:58:28.114Z,61.50
2023-02-14T13:03:44.813Z,59.63
2023-02-14T13:06:13.110Z,59.06
2023-02-14T13:08:39.617Z,59.05
2023-02-14T13:11:06.405Z,57.94
2023-02-14T13:13:33.221Z,59.00
2023-02-14T13:15:59.792Z,60.82
2023-02-14T13:18:26.696Z,59.62
2023-02-14T13:20:53.692Z,58.48
2023-02-14T13:23:20.162Z,59.36
2023-02-14T13:25:46.661Z,58.37
2023-02-14T13:28:13.080Z,59.28
2023-02-14T13:30:39.730Z,59.10
2023-02-14T13:33:06.222Z,58.58
2023-02-14T13:35:32.676Z,59.55
2023-02-14T13:37:59.132Z,57.64
2023-02-14T13:40:25.587Z,58.18
2023-02-14T13:42:52.090Z,57.70
2023-02-14T13:45:18.544Z,58.91
2023-02-14T13:47:45.041Z,59.27
2023-02-14T13:53:01.748Z,60.51
2023-02-14T13:55:28.430Z,58.43
2023-02-14T13:57:54.934Z,58.26
2023-02-14T14:00:21.371Z,57.93
2023-02-14T14:02:47.909Z,57.70
2023-02-14T14:05:15.468Z,58.56
2023-02-14T14:07:42.569Z,59.05
2023-02-14T14:10:09.032Z,59.77
2023-02-14T14:12:35.525Z,60.25
2023-02-14T14:15:02.049Z,59.16
2023-02-14T14:17:37.544Z,58.93
2023-02-14T14:20:05.115Z,56.99
2023-02-14T14:22:31.619Z,55.97
2023-02-14T14:24:58.086Z,56.06
2023-02-14T14:27:24.630Z,55.97
2023-02-14T14:29:53.040Z,57.03
2023-02-14T14:32:19.528Z,57.49
2023-02-14T14:34:47.000Z,56.68
2023-02-14T14:37:13.392Z,56.78
2023-02-14T14:39:39.854Z,57.73
2023-02-14T14:42:07.033Z,57.62
2023-02-14T14:44:33.607Z,57.00
2023-02-14T14:47:00.193Z,55.52
2023-02-14T14:49:26.571Z,55.72
2023-02-14T14:51:53.027Z,56.06
2023-02-14T14:54:19.442Z,54.81
2023-02-14T14:56:45.810Z,55.45
2023-02-14T14:59:12.214Z,56.93
2023-02-14T15:01:38.633Z,56.73
2023-02-14T15:04:05.054Z,57.15
2023-02-14T15:06:40.357Z,57.27
2023-02-14T15:09:06.833Z,56.11
2023-02-14T15:11:33.209Z,56.03
2023-02-14T15:13:59.700Z,55.56
2023-02-14T15:16:26.159Z,54.82
2023-02-14T15:18:52.706Z,55.46
2023-02-14T15:21:23.464Z,54.03
2023-02-14T15:26:35.844Z,52.02
2023-02-14T15:29:07.182Z,53.77
2023-02-14T15:31:33.656Z,54.36
2023-02-14T15:34:00.267Z,52.12
2023-02-14T15:36:26.676Z,52.49
2023-02-14T15:38:53.139Z,54.45
2023-02-14T15:41:19.586Z,53.61
2023-02-14T15:43:46.197Z,55.59
2023-02-14T15:46:12.759Z,55.21
2023-02-14T15:48:39.246Z,55.18
2023-02-14T15:51:05.880Z,53.62
2023-02-14T15:53:32.379Z,53.54
2023-02-14T15:55:58.849Z,55.89
2023-02-14T15:58:26.292Z,53.35
2023-02-14T16:00:52.633Z,53.41
2023-02-14T16:03:19.650Z,52.06
2023-02-14T16:05:49.773Z,54.41
2023-02-14T16:08:16.307Z,52.57
2023-02-14T16:10:42.703Z,49.97
2023-02-14T16:13:09.261Z,49.35
2023-02-14T16:15:35.819Z,51.25
2023-02-14T16:18:02.249Z,49.88
2023-02-14T16:20:28.730Z,50.48
2023-02-14T16:22:55.267Z,48.94
2023-02-14T16:25:21.752Z,50.18
2023-02-14T16:27:48.269Z,49.21
2023-02-14T16:30:14.795Z,50.36
2023-02-14T16:32:41.340Z,50.75
2023-02-14T16:35:07.809Z,50.08
2023-02-14T16:37:34.392Z,48.78
2023-02-14T16:40:00.906Z,49.05
2023-02-14T16:42:27.451Z,49.27
2023-02-14T16:44:53.976Z,48.02
2023-02-14T16:47:20.570Z,49.34
2023-02-14T16:49:47.062Z,49.17
2023-02-14T16:52:13.497Z,48.34
2023-02-14T16:57:20.304Z,41.31
2023-02-14T16:59:46.723Z,39.15
2023-02-14T17:02:13.148Z,42.23
2023-02-14T17:04:39.598Z,44.19
2023-02-14T17:07:06.059Z,46.56
2023-02-14T17:09:32.430Z,47.32
2023-02-14T17:11:58.915Z,47.07
2023-02-14T17:14:25.631Z,47.52
2023-02-14T17:16:56.582Z,48.72
2023-02-14T17:19:23.000Z,48.85
2023-02-14T17:21:49.480Z,35.53
2023-02-14T17:24:15.979Z,26.41
2023-02-14T17:26:42.450Z,27.72
2023-02-14T17:29:08.862Z,31.94
2023-02-14T17:31:35.500Z,56.16
2023-02-14T17:34:01.953Z,71.23
2023-02-14T17:36:28.431Z,38.69
2023-02-14T17:38:54.913Z,32.09
2023-02-14T17:41:26.974Z,32.88
2023-02-14T17:43:53.371Z,34.45
2023-02-14T17:46:19.838Z,36.26
2023-02-14T17:48:46.230Z,38.11
2023-02-14T17:54:03.183Z,36.30
2023-02-14T17:56:29.639Z,36.74
2023-02-14T17:58:56.239Z,110.15
2023-02-14T18:01:22.767Z,252.85
2023-02-14T18:03:49.290Z,743.42
2023-02-14T18:06:15.769Z,445.50
2023-02-14T18:08:42.265Z,113.89
2023-02-14T18:11:08.722Z,41.95
2023-02-14T18:13:35.151Z,32.68
2023-02-14T18:16:01.599Z,34.09
2023-02-14T18:18:35.294Z,33.57
2023-02-14T18:21:02.141Z,87.09
2023-02-14T18:23:28.835Z,93.76
2023-02-14T18:25:55.715Z,202.40
2023-02-14T18:28:24.013Z,84.14
2023-02-14T18:30:53.512Z,30.62
2023-02-14T18:33:24.122Z,25.57
2023-02-14T18:35:51.961Z,27.30
2023-02-14T18:38:21.406Z,25.80
2023-02-14T18:40:47.860Z,22.83
2023-02-14T18:43:16.772Z,24.87
2023-02-14T18:45:43.280Z,29.54
2023-02-14T18:48:09.711Z,28.41
2023-02-14T18:50:36.175Z,28.65
2023-02-14T18:53:02.723Z,28.66
2023-02-14T18:55:34.414Z,30.21
2023-02-14T18:58:00.907Z,35.10
2023-02-14T19:00:33.242Z,37.58
2023-02-14T19:02:59.785Z,40.62
2023-02-14T19:05:26.295Z,36.97
2023-02-14T19:07:52.699Z,38.29
2023-02-14T19:10:19.172Z,40.53
2023-02-14T19:12:45.639Z,42.11
2023-02-14T19:15:12.076Z,36.55
2023-02-14T19:17:38.504Z,32.33
2023-02-14T19:20:04.919Z,25.65
2023-02-14T19:22:31.562Z,29.70
2023-02-14T19:24:58.006Z,33.01
2023-02-14T19:27:32.078Z,37.20
2023-02-14T19:29:59.407Z,40.95
2023-02-14T19:32:25.797Z,47.60
2023-02-14T19:34:52.564Z,49.44
2023-02-14T19:37:19.039Z,41.96
2023-02-14T19:39:45.428Z,34.36
2023-02-14T19:42:14.023Z,33.32
2023-02-14T19:44:40.448Z,33.66
2023-02-14T19:47:23.335Z,41.03
2023-02-14T19:49:50.037Z,39.97
2023-02-14T19:52:25.817Z,32.65
2023-02-14T19:54:53.142Z,37.91
2023-02-14T19:57:19.604Z,43.97
2023-02-14T19:59:46.164Z,51.19
2023-02-14T20:02:12.615Z,41.81
2023-02-14T20:04:39.066Z,29.39
2023-02-14T20:07:05.534Z,31.18
2023-02-14T20:09:31.972Z,30.77
2023-02-14T20:11:58.503Z,30.87
2023-02-14T20:14:24.918Z,37.82
2023-02-14T20:16:51.471Z,41.43
2023-02-14T20:19:18.001Z,42.22
2023-02-14T20:21:44.424Z,41.63
2023-02-14T20:24:10.950Z,46.57
2023-02-14T20:26:39.860Z,45.79
2023-02-14T20:29:06.390Z,45.96
2023-02-14T20:31:33.040Z,44.10
2023-02-14T20:33:59.576Z,48.30
2023-02-14T20:36:25.976Z,49.24
2023-02-14T20:38:53.128Z,49.43
2023-02-14T20:41:19.643Z,45.93
2023-02-14T20:43:46.271Z,50.63
2023-02-14T20:46:13.819Z,38.20
2023-02-14T20:48:47.690Z,36.35
2023-02-14T20:51:16.423Z,28.66
2023-02-14T20:53:47.573Z,23.92
2023-02-14T20:56:14.010Z,19.52
2023-02-14T20:58:40.446Z,25.23
2023-02-14T21:01:07.061Z,25.19
2023-02-14T21:03:33.546Z,23.71
2023-02-14T21:06:00.016Z,19.91
2023-02-14T21:08:27.536Z,17.54
2023-02-14T21:10:53.918Z,13.92
2023-02-14T21:13:20.418Z,11.21
2023-02-14T21:15:46.957Z,9.46
2023-02-14T21:18:14.041Z,9.02
2023-02-14T21:20:40.446Z,10.10
2023-02-14T21:23:06.850Z,25.05
2023-02-14T21:25:33.327Z,15.19
2023-02-14T21:27:59.743Z,11.66
2023-02-14T21:30:26.305Z,16.13
2023-02-14T21:32:52.828Z,20.72
2023-02-14T21:35:23.404Z,22.58
2023-02-14T21:37:52.329Z,22.06
2023-02-14T21:40:18.881Z,21.85
2023-02-14T21:42:46.522Z,24.01
2023-02-14T21:45:13.030Z,20.91
2023-02-14T21:47:39.486Z,20.36
2023-02-14T21:50:06.251Z,20.27
2023-02-14T21:52:32.713Z,19.13
2023-02-14T21:54:59.126Z,16.73
2023-02-14T21:57:25.594Z,16.13
2023-02-14T21:59:51.982Z,16.12
2023-02-14T22:02:18.527Z,14.63
2023-02-14T22:04:45.927Z,19.22
2023-02-14T22:07:12.351Z,20.40
2023-02-14T22:09:38.795Z,22.43
2023-02-14T22:12:05.276Z,31.26
2023-02-14T22:14:31.739Z,27.57
2023-02-14T22:16:58.180Z,21.27
2023-02-14T22:19:24.651Z,17.76
2023-02-14T22:21:51.139Z,18.78
2023-02-14T22:24:17.611Z,21.49
2023-02-14T22:26:44.041Z,24.64
2023-02-14T22:29:10.536Z,27.07
2023-02-14T22:31:37.047Z,26.27
2023-02-14T22:34:03.563Z,31.92
2023-02-14T22:36:29.974Z,29.51
2023-02-14T22:38:56.353Z,25.75
2023-02-14T22:41:22.728Z,28.17
2023-02-14T22:43:49.163Z,31.09
2023-02-14T22:46:23.097Z,30.00
2023-02-14T22:48:49.527Z,33.60
2023-02-14T22:51:15.962Z,39.30
2023-02-14T22:53:42.332Z,28.55
2023-02-14T22:56:08.830Z,20.09
2023-02-14T22:58:35.968Z,17.89
2023-02-14T23:01:02.330Z,19.64
2023-02-14T23:03:28.707Z,23.75
2023-02-14T23:05:55.101Z,21.80
2023-02-14T23:08:21.534Z,19.86
2023-02-14T23:10:47.995Z,22.85
2023-02-14T23:13:16.573Z,19.34
2023-02-14T23:15:42.985Z,17.02
2023-02-14T23:18:09.337Z,14.26
2023-02-14T23:20:36.174Z,14.56
2023-02-14T23:23:02.996Z,15.40
2023-02-14T23:25:30.740Z,19.11
2023-02-14T23:28:04.804Z,20.98
2023-02-14T23:30:31.208Z,23.60
2023-02-14T23:33:01.436Z,33.52
2023-02-14T23:35:27.844Z,29.44
2023-02-14T23:40:34.750Z,21.98
2023-02-14T23:43:01.216Z,25.43
2023-02-14T23:48:07.918Z,23.23
2023-02-14T23:50:34.410Z,22.26
2023-02-14T23:53:00.966Z,19.27
2023-02-14T23:55:27.353Z,18.12
2023-02-14T23:57:53.826Z,19.06
